createdAt,value
2022-08-30T00:01:26.495Z,0.30
2022-08-30T00:04:29.800Z,0.50
2022-08-30T00:07:33.080Z,0.60
2022-08-30T00:10:36.492Z,0.47
2022-08-30T00:13:40.819Z,0.50
2022-08-30T00:16:45.445Z,0.55
2022-08-30T00:19:48.665Z,0.40
2022-08-30T00:22:52.017Z,0.47
2022-08-30T00:25:55.400Z,0.37
2022-08-30T00:28:58.875Z,0.47
2022-08-30T00:32:03.954Z,0.60
2022-08-30T00:35:11.946Z,0.40
2022-08-30T00:38:16.669Z,0.40
2022-08-30T00:41:19.807Z,0.60
2022-08-30T00:44:24.114Z,0.40
2022-08-30T00:47:28.724Z,0.40
2022-08-30T00:50:39.027Z,0.50
2022-08-30T00:53:47.573Z,0.32
2022-08-30T00:56:51.535Z,0.40
2022-08-30T00:59:54.800Z,0.57
2022-08-30T01:02:59.751Z,0.43
2022-08-30T01:06:05.936Z,0.70
2022-08-30T01:09:10.366Z,0.40
2022-08-30T01:12:14.160Z,0.38
2022-08-30T01:15:20.638Z,0.50
2022-08-30T01:18:26.700Z,0.60
2022-08-30T01:21:40.556Z,0.50
2022-08-30T01:24:47.633Z,0.50
2022-08-30T01:27:57.783Z,0.40
2022-08-30T01:31:01.759Z,0.45
2022-08-30T01:34:07.557Z,0.50
2022-08-30T01:37:10.736Z,0.50
2022-08-30T01:40:19.683Z,0.40
2022-08-30T01:43:23.249Z,0.50
2022-08-30T01:46:31.066Z,0.60
2022-08-30T01:49:34.262Z,0.60
2022-08-30T01:52:37.384Z,0.65
2022-08-30T01:55:42.585Z,0.57
2022-08-30T01:58:46.656Z,0.50
2022-08-30T02:01:50.008Z,0.40
2022-08-30T02:04:54.231Z,0.63
2022-08-30T02:11:01.767Z,0.43
2022-08-30T02:14:06.052Z,0.30
2022-08-30T02:17:13.048Z,0.50
2022-08-30T02:20:16.338Z,0.55
2022-08-30T02:23:20.067Z,0.60
2022-08-30T02:26:24.926Z,0.47
2022-08-30T02:29:29.354Z,0.40
2022-08-30T02:32:32.514Z,0.50
2022-08-30T02:35:35.708Z,0.68
2022-08-30T02:38:38.913Z,0.63
2022-08-30T02:41:44.448Z,0.52
2022-08-30T02:44:47.649Z,0.38
2022-08-30T02:47:50.932Z,0.52
2022-08-30T02:50:54.673Z,0.77
2022-08-30T02:53:58.112Z,0.50
2022-08-30T02:57:04.968Z,0.65
2022-08-30T03:00:12.662Z,1.00
2022-08-30T03:03:16.869Z,0.60
2022-08-30T03:06:20.247Z,0.63
2022-08-30T03:09:23.729Z,0.70
2022-08-30T03:12:28.391Z,0.82
2022-08-30T03:15:31.753Z,0.60
2022-08-30T03:18:35.056Z,0.60
2022-08-30T03:21:39.145Z,0.40
2022-08-30T03:24:42.688Z,0.50
2022-08-30T03:27:47.551Z,0.60
2022-08-30T03:30:50.707Z,0.30
2022-08-30T03:33:54.112Z,0.40
2022-08-30T03:36:58.367Z,0.97
2022-08-30T03:43:07.351Z,0.50
2022-08-30T03:46:13.462Z,0.50
2022-08-30T03:49:17.287Z,0.60
2022-08-30T03:52:20.419Z,0.50
2022-08-30T03:55:23.764Z,0.50
2022-08-30T03:58:28.849Z,0.53
2022-08-30T04:01:32.341Z,0.90
2022-08-30T04:04:35.710Z,0.80
2022-08-30T04:07:39.166Z,0.70
2022-08-30T04:10:42.443Z,0.80
2022-08-30T04:13:49.363Z,0.60
2022-08-30T04:16:53.130Z,0.65
2022-08-30T04:19:56.656Z,0.60
2022-08-30T04:22:59.829Z,0.90
2022-08-30T04:26:02.975Z,0.65
2022-08-30T04:29:07.640Z,0.60
2022-08-30T04:32:10.751Z,0.77
2022-08-30T04:35:15.277Z,0.90
2022-08-30T04:38:18.901Z,0.60
2022-08-30T04:41:25.941Z,0.70
2022-08-30T04:44:32.067Z,0.80
2022-08-30T04:47:35.341Z,0.63
2022-08-30T04:50:38.721Z,0.90
2022-08-30T04:53:42.412Z,0.90
2022-08-30T04:56:45.638Z,0.90
2022-08-30T04:59:50.478Z,0.80
2022-08-30T05:02:54.196Z,0.50
2022-08-30T05:05:57.339Z,1.00
2022-08-30T05:09:01.745Z,0.70
2022-08-30T05:12:05.471Z,0.70
2022-08-30T05:15:12.153Z,0.55
2022-08-30T05:18:16.096Z,0.70
2022-08-30T05:21:22.291Z,0.63
2022-08-30T05:24:25.791Z,1.00
2022-08-30T05:27:29.224Z,0.60
2022-08-30T05:30:38.220Z,0.70
2022-08-30T05:33:41.728Z,0.30
2022-08-30T05:36:45.096Z,0.50
2022-08-30T05:39:51.533Z,0.50
2022-08-30T05:42:55.494Z,0.50
2022-08-30T05:46:05.332Z,0.57
2022-08-30T05:49:09.675Z,0.52
2022-08-30T05:52:15.402Z,0.25
2022-08-30T05:55:19.597Z,0.30
2022-08-30T05:58:22.895Z,0.40
2022-08-30T06:01:31.729Z,0.40
2022-08-30T06:04:36.587Z,0.50
2022-08-30T06:07:39.762Z,0.50
2022-08-30T06:10:43.345Z,0.30
2022-08-30T06:13:47.578Z,0.30
2022-08-30T06:16:52.763Z,0.25
2022-08-30T06:19:56.000Z,0.20
2022-08-30T06:22:59.403Z,0.30
2022-08-30T06:26:06.489Z,0.10
2022-08-30T06:29:11.323Z,0.43
2022-08-30T06:32:15.894Z,0.13
2022-08-30T06:35:19.176Z,0.20
2022-08-30T06:38:22.346Z,0.25
2022-08-30T06:41:29.159Z,0.20
2022-08-30T06:44:32.299Z,0.20
2022-08-30T06:47:36.971Z,0.20
2022-08-30T06:50:41.921Z,0.30
2022-08-30T06:53:46.015Z,0.13
2022-08-30T07:00:09.523Z,0.10
2022-08-30T07:03:15.875Z,0.17
2022-08-30T07:06:19.969Z,0.17
2022-08-30T07:12:26.751Z,0.00
2022-08-30T07:15:30.014Z,0.20
2022-08-30T07:18:55.108Z,0.17
2022-08-30T07:21:58.281Z,0.10
2022-08-30T07:25:01.859Z,0.20
2022-08-30T07:28:05.825Z,0.10
2022-08-30T07:34:14.012Z,0.03
2022-08-30T07:37:18.183Z,0.10
2022-08-30T07:40:21.845Z,0.00
2022-08-30T07:43:25.097Z,0.10
2022-08-30T07:46:29.169Z,0.00
2022-08-30T07:49:33.932Z,0.10
2022-08-30T07:55:41.690Z,0.10
2022-08-30T07:58:44.898Z,0.20
2022-08-30T08:01:48.057Z,0.37
2022-08-30T08:04:52.763Z,0.17
2022-08-30T08:07:55.915Z,0.20
2022-08-30T08:11:00.043Z,0.23
2022-08-30T08:14:04.685Z,0.10
2022-08-30T08:17:07.951Z,0.08
2022-08-30T08:20:12.892Z,0.20
2022-08-30T08:23:18.069Z,0.10
2022-08-30T08:26:22.651Z,0.00
2022-08-30T08:29:26.904Z,0.30
2022-08-30T08:32:30.220Z,0.30
2022-08-30T08:35:35.548Z,0.10
2022-08-30T08:38:38.782Z,0.10
2022-08-30T08:41:55.035Z,0.00
2022-08-30T08:45:10.268Z,0.05
2022-08-30T08:48:35.910Z,0.10
2022-08-30T08:52:14.620Z,0.20
2022-08-30T08:55:23.463Z,0.10
2022-08-30T08:58:30.777Z,0.10
2022-08-30T09:01:34.330Z,0.20
2022-08-30T09:04:40.782Z,0.00
2022-08-30T09:07:51.019Z,0.03
2022-08-30T09:11:00.155Z,0.10
2022-08-30T09:14:04.735Z,0.30
2022-08-30T09:17:10.117Z,0.13
2022-08-30T09:20:13.710Z,0.10
2022-08-30T09:23:28.701Z,0.10
2022-08-30T09:26:35.520Z,0.20
2022-08-30T09:29:53.719Z,0.10
2022-08-30T09:33:00.887Z,0.20
2022-08-30T09:36:22.532Z,0.10
2022-08-30T09:39:33.829Z,0.10
2022-08-30T09:42:37.571Z,0.10
2022-08-30T09:45:44.077Z,0.30
2022-08-30T09:48:48.020Z,0.20
2022-08-30T09:52:10.778Z,0.10
2022-08-30T09:55:32.977Z,0.10
2022-08-30T09:59:01.635Z,0.10
2022-08-30T10:02:35.438Z,0.10
2022-08-30T10:05:54.035Z,0.10
2022-08-30T10:09:15.290Z,0.20
2022-08-30T10:12:33.429Z,0.00
2022-08-30T10:15:46.936Z,0.28
2022-08-30T10:19:07.168Z,0.20
2022-08-30T10:22:17.907Z,0.10
2022-08-30T10:25:27.173Z,0.10
2022-08-30T10:28:41.564Z,0.20
2022-08-30T10:31:53.393Z,0.28
2022-08-30T10:35:04.397Z,0.13
2022-08-30T10:38:16.403Z,0.10
2022-08-30T10:41:30.499Z,0.10
2022-08-30T10:44:44.317Z,0.10
2022-08-30T10:47:59.861Z,0.20
2022-08-30T10:51:13.276Z,0.10
2022-08-30T10:54:24.570Z,0.20
2022-08-30T10:57:28.275Z,0.10
2022-08-30T11:00:46.535Z,0.10
2022-08-30T11:04:40.496Z,0.10
2022-08-30T11:08:05.147Z,0.10
2022-08-30T11:11:21.450Z,0.00
2022-08-30T11:14:26.295Z,0.20
2022-08-30T11:17:39.800Z,0.20
2022-08-30T11:20:49.404Z,0.28
2022-08-30T11:24:11.478Z,0.30
2022-08-30T11:27:42.792Z,0.10
2022-08-30T11:30:52.316Z,0.10
2022-08-30T11:34:00.910Z,0.10
2022-08-30T11:37:09.526Z,0.05
2022-08-30T11:40:53.519Z,0.10
2022-08-30T11:43:57.378Z,0.20
2022-08-30T11:50:16.083Z,0.20
2022-08-30T11:53:30.502Z,0.20
2022-08-30T11:56:49.314Z,0.15
2022-08-30T12:00:06.992Z,0.10
2022-08-30T12:03:33.566Z,0.47
2022-08-30T12:06:54.131Z,0.20
2022-08-30T12:10:06.920Z,0.25
2022-08-30T12:13:55.481Z,0.10
2022-08-30T12:17:19.028Z,0.20
2022-08-30T12:20:30.981Z,0.20
2022-08-30T12:23:49.553Z,0.17
2022-08-30T12:26:54.466Z,0.20
2022-08-30T12:30:02.873Z,0.20
2022-08-30T12:33:12.031Z,0.40
2022-08-30T12:36:33.420Z,0.20
2022-08-30T12:39:40.631Z,0.10
2022-08-30T12:42:53.900Z,0.17
2022-08-30T12:46:07.202Z,0.10
2022-08-30T12:49:14.431Z,0.10
2022-08-30T12:52:22.903Z,0.20
2022-08-30T12:55:31.677Z,0.22
2022-08-30T12:58:45.725Z,0.17
2022-08-30T13:01:50.417Z,0.10
2022-08-30T13:04:59.880Z,0.47
2022-08-30T13:08:21.417Z,0.17
2022-08-30T13:11:29.721Z,0.13
2022-08-30T13:14:39.116Z,0.30
2022-08-30T13:17:47.944Z,0.20
2022-08-30T13:20:51.434Z,0.10
2022-08-30T13:24:00.280Z,0.20
2022-08-30T13:27:09.658Z,0.30
2022-08-30T13:30:16.919Z,0.10
2022-08-30T13:33:21.623Z,0.20
2022-08-30T13:36:29.918Z,0.20
2022-08-30T13:39:33.215Z,0.30
2022-08-30T13:42:37.044Z,0.22
2022-08-30T13:45:41.948Z,0.10
2022-08-30T13:48:47.615Z,0.20
2022-08-30T13:52:18.529Z,0.20
2022-08-30T13:55:17.241Z,0.20
2022-08-30T13:58:20.909Z,0.10
2022-08-30T14:01:24.302Z,0.20
2022-08-30T14:04:30.229Z,0.10
2022-08-30T14:07:33.442Z,0.40
2022-08-30T14:10:46.720Z,0.20
2022-08-30T14:20:20.610Z,0.13
2022-08-30T14:23:23.841Z,0.20
2022-08-30T14:26:33.075Z,0.20
2022-08-30T14:29:36.911Z,0.13
2022-08-30T14:32:42.681Z,0.20
2022-08-30T14:35:47.502Z,0.10
2022-08-30T14:38:53.118Z,0.13
2022-08-30T14:41:57.934Z,0.13
2022-08-30T14:45:08.995Z,0.20
2022-08-30T14:48:12.893Z,0.30
2022-08-30T14:51:23.742Z,0.13
2022-08-30T14:54:34.966Z,0.10
2022-08-30T14:57:40.787Z,0.40
2022-08-30T15:00:50.783Z,0.10
2022-08-30T15:03:55.042Z,0.20
2022-08-30T15:07:00.828Z,0.32
2022-08-30T15:10:07.189Z,0.17
2022-08-30T15:13:11.215Z,0.15
2022-08-30T15:19:23.222Z,0.10
2022-08-30T15:22:28.626Z,0.20
2022-08-30T15:25:32.930Z,0.17
2022-08-30T15:28:36.434Z,0.20
2022-08-30T15:31:41.873Z,0.20
2022-08-30T15:34:45.551Z,0.20
2022-08-30T15:38:00.827Z,0.15
2022-08-30T15:41:10.715Z,0.30
2022-08-30T15:44:14.496Z,0.10
2022-08-30T15:47:20.867Z,0.22
2022-08-30T15:50:25.021Z,0.30
2022-08-30T15:53:30.559Z,0.30
2022-08-30T15:56:35.327Z,0.30
2022-08-30T15:59:38.848Z,0.22
2022-08-30T16:02:42.366Z,0.10
2022-08-30T16:05:46.047Z,0.30
2022-08-30T16:08:52.237Z,0.28
2022-08-30T16:11:55.890Z,0.20
2022-08-30T16:14:59.632Z,0.30
2022-08-30T16:18:03.377Z,0.40
2022-08-30T16:21:10.916Z,0.20
2022-08-30T16:24:18.171Z,0.40
2022-08-30T16:27:25.659Z,0.20
2022-08-30T16:30:29.042Z,0.20
2022-08-30T16:33:32.718Z,0.10
2022-08-30T16:36:36.067Z,0.20
2022-08-30T16:39:41.164Z,0.17
2022-08-30T16:42:50.312Z,0.30
2022-08-30T16:45:53.792Z,0.20
2022-08-30T16:48:59.407Z,0.15
2022-08-30T16:52:04.426Z,0.30
2022-08-30T16:55:10.071Z,0.17
2022-08-30T16:58:18.785Z,0.22
2022-08-30T17:01:24.230Z,0.35
2022-08-30T17:04:27.644Z,0.30
2022-08-30T17:07:30.936Z,0.20
2022-08-30T17:10:35.724Z,0.47
2022-08-30T17:13:40.419Z,0.30
2022-08-30T17:16:45.409Z,0.22
2022-08-30T17:19:49.486Z,0.30
2022-08-30T17:22:53.874Z,0.40
2022-08-30T17:25:59.359Z,0.30
2022-08-30T17:29:03.363Z,0.20
2022-08-30T17:32:07.756Z,0.30
2022-08-30T17:35:13.496Z,0.38
2022-08-30T17:38:17.215Z,0.20
2022-08-30T17:41:22.331Z,0.20
2022-08-30T17:44:29.712Z,0.20
2022-08-30T17:47:36.445Z,0.30
2022-08-30T17:50:40.199Z,0.10
2022-08-30T17:53:44.585Z,0.30
2022-08-30T17:56:50.171Z,0.22
2022-08-30T17:59:55.523Z,0.30
2022-08-30T18:02:59.778Z,0.30
2022-08-30T18:06:03.875Z,0.30
2022-08-30T18:12:14.369Z,1.17
2022-08-30T18:15:17.930Z,0.57
2022-08-30T18:18:22.217Z,0.30
2022-08-30T18:21:28.407Z,0.30
2022-08-30T18:24:32.236Z,0.20
2022-08-30T18:27:39.347Z,0.30
2022-08-30T18:30:44.953Z,0.32
2022-08-30T18:33:49.109Z,0.28
2022-08-30T18:36:52.749Z,0.30
2022-08-30T18:39:56.543Z,0.30
2022-08-30T18:43:04.897Z,0.40
2022-08-30T18:46:11.584Z,0.20
2022-08-30T18:49:16.864Z,0.32
2022-08-30T18:52:20.815Z,0.40
2022-08-30T18:55:24.069Z,0.35
2022-08-30T18:58:28.720Z,0.40
2022-08-30T19:01:32.020Z,0.30
2022-08-30T19:04:36.173Z,0.30
2022-08-30T19:10:43.625Z,0.63
2022-08-30T19:13:48.809Z,0.70
2022-08-30T19:16:54.919Z,0.70
2022-08-30T19:19:58.181Z,0.57
2022-08-30T19:23:09.779Z,0.80
2022-08-30T19:26:14.647Z,0.70
2022-08-30T19:29:19.205Z,0.43
2022-08-30T19:32:22.866Z,0.50
2022-08-30T19:35:30.116Z,0.40
2022-08-30T19:38:36.384Z,0.50
2022-08-30T19:41:39.705Z,0.60
2022-08-30T19:44:44.369Z,1.10
2022-08-30T19:47:48.763Z,0.70
2022-08-30T19:50:52.267Z,0.60
2022-08-30T19:53:58.789Z,0.32
2022-08-30T19:57:02.380Z,0.30
2022-08-30T20:00:11.179Z,0.40
2022-08-30T20:03:14.643Z,0.47
2022-08-30T20:06:19.656Z,0.40
2022-08-30T20:12:26.518Z,0.52
2022-08-30T20:15:31.509Z,0.37
2022-08-30T20:18:36.491Z,0.20
2022-08-30T20:21:40.485Z,0.47
2022-08-30T20:24:44.871Z,0.60
2022-08-30T20:27:48.234Z,0.40
2022-08-30T20:30:53.695Z,0.50
2022-08-30T20:33:57.730Z,0.40
2022-08-30T20:37:00.969Z,0.60
2022-08-30T20:40:06.555Z,0.73
2022-08-30T20:43:09.813Z,0.57
2022-08-30T20:46:17.659Z,0.63
2022-08-30T20:49:20.871Z,0.40
2022-08-30T20:52:24.519Z,0.20
2022-08-30T20:55:28.164Z,0.47
2022-08-30T20:58:31.910Z,0.50
2022-08-30T21:01:38.914Z,0.47
2022-08-30T21:04:44.070Z,0.35
2022-08-30T21:07:47.972Z,0.30
2022-08-30T21:10:51.332Z,0.30
2022-08-30T21:13:54.706Z,0.40
2022-08-30T21:16:59.285Z,0.37
2022-08-30T21:20:04.249Z,0.32
2022-08-30T21:23:07.691Z,0.22
2022-08-30T21:26:12.325Z,0.50
2022-08-30T21:29:16.173Z,0.22
2022-08-30T21:32:20.800Z,0.25
2022-08-30T21:35:43.818Z,0.40
2022-08-30T21:38:47.151Z,0.40
2022-08-30T21:41:54.421Z,0.40
2022-08-30T21:44:57.855Z,0.40
2022-08-30T21:48:02.479Z,0.37
2022-08-30T21:51:08.082Z,0.30
2022-08-30T21:54:13.536Z,0.30
2022-08-30T21:57:17.472Z,0.30
2022-08-30T22:00:21.000Z,0.40
2022-08-30T22:03:25.753Z,0.45
2022-08-30T22:06:33.143Z,0.40
2022-08-30T22:09:36.890Z,0.40
2022-08-30T22:12:41.584Z,0.43
2022-08-30T22:15:44.836Z,0.30
2022-08-30T22:18:50.700Z,0.40
2022-08-30T22:22:00.886Z,0.35
2022-08-30T22:25:05.260Z,0.73
2022-08-30T22:28:08.546Z,0.50
2022-08-30T22:31:15.288Z,0.50
2022-08-30T22:34:19.933Z,0.40
2022-08-30T22:37:23.106Z,0.47
2022-08-30T22:40:26.569Z,0.50
2022-08-30T22:43:30.135Z,0.70
2022-08-30T22:46:34.906Z,0.43
2022-08-30T22:49:39.546Z,0.32
2022-08-30T22:52:42.694Z,0.30
2022-08-30T22:55:45.900Z,0.63
2022-08-30T22:58:50.184Z,0.57
2022-08-30T23:04:58.055Z,0.50
2022-08-30T23:08:01.274Z,0.40
2022-08-30T23:11:04.585Z,0.60
2022-08-30T23:14:08.377Z,0.60
2022-08-30T23:17:11.814Z,0.40
2022-08-30T23:20:16.932Z,0.53
2022-08-30T23:23:38.016Z,0.45
2022-08-30T23:27:01.543Z,0.40
2022-08-30T23:30:26.476Z,0.40
2022-08-30T23:33:47.268Z,0.30
2022-08-30T23:37:09.378Z,0.40
2022-08-30T23:40:31.612Z,0.40
2022-08-30T23:43:54.151Z,0.38
2022-08-30T23:47:15.403Z,0.40
2022-08-30T23:50:36.566Z,0.50
2022-08-30T23:53:58.664Z,0.45
2022-08-30T23:57:19.576Z,0.50
